American Spirit — WCX2417 — position and weather

sailwx.info

Track history (hours):
 
Tides and Currents Weather Stations Pressure Air Temp Water Temp Dewpoint Dewpoint Depression Visibility Wind Speed Wind Dir Waves Ship Positions

American Spirit

Owner: AMERICAN STEAMSHIP COMPANY, WILLIAMSVILLE, NY. More information available from US FCC via Universal Licensing System and Coast Guard Vessel Documentation Center.

Last reported at 2017-Nov-17 03:12 UTC. Time now 2017-Nov-18 01:19 UTC.
Position N 46°54' W 091°35'.

Length 302 m; draft 8.6 m.

Type: Cargo ship. MMSI: 366930730.

Date/timePositionNaut miles runAvg speedWind from/ knotsBaromVisibWave heightAir tempDewpointWater temp
2017-Nov-17 03:12N 46°54' W 091°35'211.5
2017-Nov-17 03:00N 46°53' W 091°38'611.2
2017-Nov-17 02:30N 46°51' W 091°46'611.3
2017-Nov-17 02:00N 46°49' W 091°54'510.8
2017-Nov-17 01:30N 46°48' W 092°01'4 7.2
2017-Nov-17 01:00N 46°47' W 092°06'2 3.0
2017-Nov-17 00:30N 46°45' W 092°06'1 2.8
2017-Nov-17 00:00N 46°45' W 092°08'0 0.8
2017-Nov-16 23:30N 46°45' W 092°08'0 0.0
2017-Nov-16 23:00N 46°45' W 092°08'0 0.0
2017-Nov-16 22:30N 46°45' W 092°08'0 0.0
2017-Nov-16 22:00N 46°45' W 092°08'0 0.0
2017-Nov-16 21:30N 46°45' W 092°08'0 0.0
2017-Nov-16 21:00N 46°45' W 092°08'0 0.0
2017-Nov-16 20:30N 46°45' W 092°08'0 0.0
2017-Nov-16 20:00N 46°45' W 092°08'0 0.0
2017-Nov-16 19:30N 46°45' W 092°08'0 0.0
2017-Nov-16 19:00N 46°45' W 092°08'0 0.0
2017-Nov-16 18:30N 46°45' W 092°08'0 0.0
2017-Nov-16 18:00N 46°45' W 092°08'0 0.0
2017-Nov-16 17:30N 46°45' W 092°08'0 0.0
2017-Nov-16 17:00N 46°45' W 092°08'0 0.0
2017-Nov-16 16:30N 46°45' W 092°08'0 0.0
2017-Nov-16 16:00N 46°45' W 092°08'0 0.0
2017-Nov-16 15:30N 46°45' W 092°08'0 0.0
2017-Nov-16 15:00N 46°45' W 092°08'0 0.0
2017-Nov-16 14:30N 46°45' W 092°08'0 0.0
2017-Nov-16 14:00N 46°45' W 092°08'0 0.1
2017-Nov-16 13:30N 46°45' W 092°08'0 0.5
2017-Nov-16 13:00N 46°45' W 092°08'0 0.4
2017-Nov-16 12:31N 46°45' W 092°08'1 1.1
2017-Nov-16 12:00N 46°45' W 092°07'1 2.3
2017-Nov-16 11:30N 46°45' W 092°05'2 3.8
2017-Nov-16 11:00N 46°47' W 092°05'4 8.5
2017-Nov-16 10:30N 46°49' W 091°59'610.9
2017-Nov-16 10:00N 46°52' W 091°52'510.9
2017-Nov-16 09:30N 46°55' W 091°46'911.2
2017-Nov-16 08:45N 47°00' W 091°36'9111.7
2017-Nov-16 01:00N 47°48' W 089°42'13511.2 360 / 171010.1 5.4 -1.6
2017-Nov-15 13:00N 47°12' W 086°30'115 5.7 220 / 101006.0 1.1 4.9
2017-Nov-14 16:47N 45°51' W 084°32'711.6
2017-Nov-14 16:11N 45°49' W 084°42'212.4
2017-Nov-14 16:00N 45°49' W 084°45'612.8
2017-Nov-14 15:30N 45°50' W 084°54'712.8
2017-Nov-14 14:57N 45°51' W 085°04'612.6
2017-Nov-14 14:30N 45°52' W 085°12'612.5
2017-Nov-14 14:00N 45°52' W 085°21'612.6
2017-Nov-14 13:30N 45°53' W 085°30'612.1
2017-Nov-14 13:00N 45°52' W 085°38'5309.3
2017-Nov-14 13:00N 45°48' W 085°42'3 7.2 180 / 211023.7 5.4 6.1
2017-Nov-14 12:30N 45°49' W 085°47'5812.9
2017-Nov-14 08:00N 45°06' W 086°42'9613.8 190 / 151027.410.8 5.5
2017-Nov-14 01:00N 43°36' W 087°30'   160 / 101028.4 4.4
2017-Nov-11 01:00N 43°06' W 087°36'13311.1 120 / 191033.510.8 -1.1
2017-Nov-10 13:00N 45°12' W 086°36'3711.3 020 / 121036.210.8 -7.2
2017-Nov-10 09:41N 45°43' W 086°07'211.4
2017-Nov-10 09:30N 45°44' W 086°04'611.5
2017-Nov-10 09:00N 45°47' W 085°56'611.5
2017-Nov-10 08:30N 45°49' W 085°49'611.2
2017-Nov-10 08:00N 45°51' W 085°42'510.5
2017-Nov-10 07:30N 45°53' W 085°35'4 8.6
2017-Nov-10 07:00N 45°54' W 085°29'4 7.6
2017-Nov-10 06:30N 45°53' W 085°23'4 8.1
2017-Nov-10 06:00N 45°53' W 085°18'4 8.5
2017-Nov-10 05:30N 45°52' W 085°12'4 8.7
2017-Nov-10 05:00N 45°52' W 085°05'5 9.3
2017-Nov-10 04:30N 45°51' W 084°59'5 9.5
2017-Nov-10 04:00N 45°50' W 084°52'5 9.3
2017-Nov-10 03:30N 45°49' W 084°46'4 8.6
2017-Nov-10 03:00N 45°50' W 084°39'5 9.0
2017-Nov-10 02:30N 45°51' W 084°33'5 9.6
2017-Nov-10 02:00N 45°52' W 084°26'1414.2
2017-Nov-10 01:00N 45°54' W 084°06'130 7.2 310 / 331021.3 1.1 -7.2
2017-Nov-09 07:00N 47°18' W 086°30'6611.0 360 / 201016.2 2.2 -2.2
2017-Nov-09 01:00N 47°30' W 088°06'13411.1 320 / 171017.6 2.2 -2.2
2017-Nov-08 13:00N 47°00' W 091°18'1510.8 260 / 211020.610.8 -1.6
2017-Nov-08 11:38N 47°00' W 091°39'1 5.0
2017-Nov-08 11:30N 47°00' W 091°40'0 0.6
2017-Nov-08 11:00N 47°01' W 091°40'0 0.2
2017-Nov-08 10:30N 47°01' W 091°40'0 0.0
2017-Nov-08 09:58N 47°01' W 091°40'0 0.0
2017-Nov-08 09:22N 47°01' W 091°40'0 0.0
2017-Nov-08 08:56N 47°01' W 091°40'0 0.0
2017-Nov-08 08:29N 47°01' W 091°40'0 0.0
2017-Nov-08 08:00N 47°01' W 091°40'0 0.0
2017-Nov-08 07:30N 47°01' W 091°40'0 0.0
2017-Nov-08 07:00N 47°01' W 091°40'0 0.0
2017-Nov-08 06:12N 47°01' W 091°40'0 0.0
2017-Nov-08 05:59N 47°01' W 091°40'0 0.0
2017-Nov-08 00:18N 47°01' W 091°40'0 0.0
2017-Nov-07 22:39N 47°01' W 091°40'0 0.1
2017-Nov-07 22:30N 47°01' W 091°40'0 0.6
2017-Nov-07 22:00N 47°01' W 091°40'9810.9
2017-Nov-07 13:00N 47°18' W 089°18'   320 / 131026.710.8 -2.7
Track history (hours):
 
Tides and Currents Weather Stations Pressure Air Temp Water Temp Dewpoint Dewpoint Depression Visibility Wind Speed Wind Dir Waves Ship Positions

American Spirit

Owner: AMERICAN STEAMSHIP COMPANY, WILLIAMSVILLE, NY. More information available from US FCC via Universal Licensing System and Coast Guard Vessel Documentation Center.

Last reported at 2017-Nov-17 03:12 UTC. Time now 2017-Nov-18 01:19 UTC.
Position N 46°54' W 091°35'.

Length 302 m; draft 8.6 m.

Type: Cargo ship. MMSI: 366930730.

Date/timePositionNaut miles runAvg speedWind from/ knotsBaromVisibWave heightAir tempDewpointWater temp
2017-Nov-17 03:12N 46°54' W 091°35'211.5
2017-Nov-17 03:00N 46°53' W 091°38'611.2
2017-Nov-17 02:30N 46°51' W 091°46'611.3
2017-Nov-17 02:00N 46°49' W 091°54'510.8
2017-Nov-17 01:30N 46°48' W 092°01'4 7.2
2017-Nov-17 01:00N 46°47' W 092°06'2 3.0
2017-Nov-17 00:30N 46°45' W 092°06'1 2.8
2017-Nov-17 00:00N 46°45' W 092°08'0 0.8
2017-Nov-16 23:30N 46°45' W 092°08'0 0.0
2017-Nov-16 23:00N 46°45' W 092°08'0 0.0
2017-Nov-16 22:30N 46°45' W 092°08'0 0.0
2017-Nov-16 22:00N 46°45' W 092°08'0 0.0
2017-Nov-16 21:30N 46°45' W 092°08'0 0.0
2017-Nov-16 21:00N 46°45' W 092°08'0 0.0
2017-Nov-16 20:30N 46°45' W 092°08'0 0.0
2017-Nov-16 20:00N 46°45' W 092°08'0 0.0
2017-Nov-16 19:30N 46°45' W 092°08'0 0.0
2017-Nov-16 19:00N 46°45' W 092°08'0 0.0
2017-Nov-16 18:30N 46°45' W 092°08'0 0.0
2017-Nov-16 18:00N 46°45' W 092°08'0 0.0
2017-Nov-16 17:30N 46°45' W 092°08'0 0.0
2017-Nov-16 17:00N 46°45' W 092°08'0 0.0
2017-Nov-16 16:30N 46°45' W 092°08'0 0.0
2017-Nov-16 16:00N 46°45' W 092°08'0 0.0
2017-Nov-16 15:30N 46°45' W 092°08'0 0.0
2017-Nov-16 15:00N 46°45' W 092°08'0 0.0
2017-Nov-16 14:30N 46°45' W 092°08'0 0.0
2017-Nov-16 14:00N 46°45' W 092°08'0 0.1
2017-Nov-16 13:30N 46°45' W 092°08'0 0.5
2017-Nov-16 13:00N 46°45' W 092°08'0 0.4
2017-Nov-16 12:31N 46°45' W 092°08'1 1.1
2017-Nov-16 12:00N 46°45' W 092°07'1 2.3
2017-Nov-16 11:30N 46°45' W 092°05'2 3.8
2017-Nov-16 11:00N 46°47' W 092°05'4 8.5
2017-Nov-16 10:30N 46°49' W 091°59'610.9
2017-Nov-16 10:00N 46°52' W 091°52'510.9
2017-Nov-16 09:30N 46°55' W 091°46'911.2
2017-Nov-16 08:45N 47°00' W 091°36'9111.7
2017-Nov-16 01:00N 47°48' W 089°42'13511.2 360 / 171010.1 5.4 -1.6
2017-Nov-15 13:00N 47°12' W 086°30'115 5.7 220 / 101006.0 1.1 4.9
2017-Nov-14 16:47N 45°51' W 084°32'711.6
2017-Nov-14 16:11N 45°49' W 084°42'212.4
2017-Nov-14 16:00N 45°49' W 084°45'612.8
2017-Nov-14 15:30N 45°50' W 084°54'712.8
2017-Nov-14 14:57N 45°51' W 085°04'612.6
2017-Nov-14 14:30N 45°52' W 085°12'612.5
2017-Nov-14 14:00N 45°52' W 085°21'612.6
2017-Nov-14 13:30N 45°53' W 085°30'612.1
2017-Nov-14 13:00N 45°52' W 085°38'5309.3
2017-Nov-14 13:00N 45°48' W 085°42'3 7.2 180 / 211023.7 5.4 6.1
2017-Nov-14 12:30N 45°49' W 085°47'5812.9
2017-Nov-14 08:00N 45°06' W 086°42'9613.8 190 / 151027.410.8 5.5
2017-Nov-14 01:00N 43°36' W 087°30'   160 / 101028.4 4.4
2017-Nov-11 01:00N 43°06' W 087°36'13311.1 120 / 191033.510.8 -1.1
2017-Nov-10 13:00N 45°12' W 086°36'3711.3 020 / 121036.210.8 -7.2
2017-Nov-10 09:41N 45°43' W 086°07'211.4
2017-Nov-10 09:30N 45°44' W 086°04'611.5
2017-Nov-10 09:00N 45°47' W 085°56'611.5
2017-Nov-10 08:30N 45°49' W 085°49'611.2
2017-Nov-10 08:00N 45°51' W 085°42'510.5
2017-Nov-10 07:30N 45°53' W 085°35'4 8.6
2017-Nov-10 07:00N 45°54' W 085°29'4 7.6
2017-Nov-10 06:30N 45°53' W 085°23'4 8.1
2017-Nov-10 06:00N 45°53' W 085°18'4 8.5
2017-Nov-10 05:30N 45°52' W 085°12'4 8.7
2017-Nov-10 05:00N 45°52' W 085°05'5 9.3
2017-Nov-10 04:30N 45°51' W 084°59'5 9.5
2017-Nov-10 04:00N 45°50' W 084°52'5 9.3
2017-Nov-10 03:30N 45°49' W 084°46'4 8.6
2017-Nov-10 03:00N 45°50' W 084°39'5 9.0
2017-Nov-10 02:30N 45°51' W 084°33'5 9.6
2017-Nov-10 02:00N 45°52' W 084°26'1414.2
2017-Nov-10 01:00N 45°54' W 084°06'130 7.2 310 / 331021.3 1.1 -7.2
2017-Nov-09 07:00N 47°18' W 086°30'6611.0 360 / 201016.2 2.2 -2.2
2017-Nov-09 01:00N 47°30' W 088°06'13411.1 320 / 171017.6 2.2 -2.2
2017-Nov-08 13:00N 47°00' W 091°18'1510.8 260 / 211020.610.8 -1.6
2017-Nov-08 11:38N 47°00' W 091°39'1 5.0
2017-Nov-08 11:30N 47°00' W 091°40'0 0.6
2017-Nov-08 11:00N 47°01' W 091°40'0 0.2
2017-Nov-08 10:30N 47°01' W 091°40'0 0.0
2017-Nov-08 09:58N 47°01' W 091°40'0 0.0
2017-Nov-08 09:22N 47°01' W 091°40'0 0.0
2017-Nov-08 08:56N 47°01' W 091°40'0 0.0
2017-Nov-08 08:29N 47°01' W 091°40'0 0.0
2017-Nov-08 08:00N 47°01' W 091°40'0 0.0
2017-Nov-08 07:30N 47°01' W 091°40'0 0.0
2017-Nov-08 07:00N 47°01' W 091°40'0 0.0
2017-Nov-08 06:12N 47°01' W 091°40'0 0.0
2017-Nov-08 05:59N 47°01' W 091°40'0 0.0
2017-Nov-08 00:18N 47°01' W 091°40'0 0.0
2017-Nov-07 22:39N 47°01' W 091°40'0 0.1
2017-Nov-07 22:30N 47°01' W 091°40'0 0.6
2017-Nov-07 22:00N 47°01' W 091°40'9810.9
2017-Nov-07 13:00N 47°18' W 089°18'   320 / 131026.710.8 -2.7

Dump ship's entire track history